Lop Buri, Thailand

2:51 PM ICT on September 22, 2014 (GMT +0700)
Bangkok International | Change Station
CLOSE
Current Station
Airport
Location: Bangkok (Don Mueang),
Elevation: 13 ft
Nearby Weather Stations

Elev 13 ft 13.92 °N, 100.61 °E | Updated 21 minutes ago

Mostly Cloudy
Mostly Cloudy
93 °F
Feels Like 100 °F
N
9
Wind Variable Wind from WNW

Today
High -- | Low -- °F
--% Chance of Precip.
Yesterday
High -- | Low -- °F
Precip. -- in
6:06 AM 6:14 PM
Waning Crescent, 3% visible
Pressure 29.74 in
Visibility 6.2 miles
Clouds Few 2000 ft
Scattered Clouds 12000 ft
Mostly Cloudy 30000 ft
Heat Index 100 °F
Dew Point 72 °F
Humidity 49%
Rainfall 0.00 in
Snow Depth Not available.
UV 6 out of 12
Pollen Not available.
Air Quality Not available.
Flu Activity Not available.
METAR VTBD 220730Z 30008KT 250V340 9999 FEW020 SCT120 BKN300 34/22 Q1007 NOSIG

More Conditions Fewer Conditions

Pressure 29.74 in
Visibility 6.2 miles
Clouds Few 2000 ft
Scattered Clouds 12000 ft
Mostly Cloudy 30000 ft
Heat Index 100 °F
Dew Point 72 °F
Humidity 49%
Rainfall 0.00 in
Snow Depth Not available.
UV 6 out of 12
Pollen Not available.
Air Quality Not available.
Flu Activity Not available.
METAR VTBD 220730Z 30008KT 250V340 9999 FEW020 SCT120 BKN300 34/22 Q1007 NOSIG

More Conditions Fewer Conditions

10-Day Weather Forecast

Almanac

Astronomy

Sep. 22, 2014 Rise Set
Actual Time 6:06 AM ICT 6:14 PM ICT
Civil Twilight 5:45 AM ICT 6:35 PM ICT
Nautical Twilight 5:20 AM ICT 7:00 PM ICT
Astronomical Twilight 4:55 AM ICT 7:25 PM ICT
Moon 4:20 AM ICT 4:54 PM ICT
Length of Visible Light 12h 50m
Length of Day
12h 07m
Tomorrow will be 0m 49s shorter.
Waning Crescent, 3% of the Moon is Illuminated
Today
Waning Crescent
Sep 24
New
Oct 1
First Quarter
Oct 8
Full
Oct 15
Last Quarter

Yesterday's Extremes

Country Highs Country Lows

Community

WunderPhotos

Upload Photos

1,755,392 photos uploaded!

Nearby

Snow Depth

Not available.

Earthquake Activity

City Distance Mag. Time & Date
No recent earthquake activity has been reported nearby.
Minimum magnitude displayed is 2.5.

Coastal Water Temperatures

Place Temperature
No Stations Reporting

Nearby Weather Stations